Time;durP1;ratioP1;P1;durP2;ratioP2;P2;SDS_P1;SDS_P2;PMS_P1;PMS_P2;Temp;Humidity;BMP_temperature;BMP_pressure;BME280_temperature;BME280_humidity;BME280_pressure;Samples;Min_cycle;Max_cycle;Signal;HPM_P1;HPM_P2
2021/04/05 00:00:03;;;;;;;12.50;5.70;;;;;;;5.40;66.30;96340.28;4967090;28;20538;-72
2021/04/05 00:02:30;;;;;;;19.75;5.40;;;;;;;5.20;66.46;96338.59;4966690;28;20240;-72
2021/04/05 00:04:57;;;;;;;11.32;5.57;;;;;;;5.21;67.08;96342.00;4968115;28;20438;-73
2021/04/05 00:07:24;;;;;;;10.90;5.35;;;;;;;5.24;66.27;96350.44;4968802;28;20596;-73
2021/04/05 00:09:51;;;;;;;13.95;4.90;;;;;;;5.22;66.60;96346.25;4967687;28;20672;-73
2021/04/05 00:12:18;;;;;;;11.77;5.50;;;;;;;5.22;66.78;96346.25;4966115;28;20677;-72
2021/04/05 00:14:46;;;;;;;17.88;5.38;;;;;;;5.17;66.93;96345.63;4970354;28;20177;-72
2021/04/05 00:17:12;;;;;;;15.18;5.43;;;;;;;5.19;67.41;96336.09;4959205;28;22996;-73
2021/04/05 00:19:44;;;;;;;14.60;5.88;;;;;;;5.18;67.24;96334.41;4967691;28;20314;-73
2021/04/05 00:22:12;;;;;;;19.88;6.05;;;;;;;5.04;67.41;96327.31;4968196;28;20293;-72
2021/04/05 00:24:39;;;;;;;16.58;6.07;;;;;;;5.00;68.04;96324.91;4966210;28;20845;-72
2021/04/05 00:27:08;;;;;;;14.70;5.30;;;;;;;5.00;68.00;96324.91;4957601;28;20201;-73
2021/04/05 00:29:35;;;;;;;11.02;5.03;;;;;;;5.00;68.08;96315.44;4958742;28;20628;-73
2021/04/05 00:32:03;;;;;;;14.60;5.55;;;;;;;5.06;67.39;96319.47;4957100;28;20624;-72
2021/04/05 00:34:30;;;;;;;12.02;5.10;;;;;;;5.03;67.71;96319.63;4963691;28;20205;-72
2021/04/05 00:36:57;;;;;;;13.63;5.05;;;;;;;5.03;68.04;96324.78;4966197;28;20720;-71
2021/04/05 00:39:24;;;;;;;15.73;4.78;;;;;;;5.02;67.93;96326.53;4969774;28;20304;-72
2021/04/05 00:41:51;;;;;;;13.57;4.88;;;;;;;5.17;67.70;96320.66;4966007;28;20198;-72
2021/04/05 00:44:18;;;;;;;9.82;4.68;;;;;;;5.03;67.62;96315.28;4965705;28;20687;-72
2021/04/05 00:46:44;;;;;;;10.82;4.30;;;;;;;4.99;67.87;96298.31;4964345;28;20265;-75
2021/04/05 00:49:12;;;;;;;12.88;4.78;;;;;;;5.01;68.06;96295.66;4947976;28;20230;-71
2021/04/05 00:51:39;;;;;;;10.13;4.28;;;;;;;5.00;67.59;96273.34;4949521;28;20198;-71
2021/04/05 00:54:06;;;;;;;17.40;4.25;;;;;;;5.06;67.90;96283.38;4937859;28;20240;-71
2021/04/05 00:56:34;;;;;;;18.70;5.57;;;;;;;5.14;67.81;96276.13;4937499;28;20860;-71
2021/04/05 00:59:01;;;;;;;7.93;4.10;;;;;;;5.15;67.46;96272.63;4936359;28;20257;-71
2021/04/05 01:01:29;;;;;;;10.50;3.90;;;;;;;5.11;67.77;96265.97;4937364;28;20193;-73
2021/04/05 01:03:56;;;;;;;17.23;4.57;;;;;;;5.11;67.96;96268.53;4962369;28;20261;-71
2021/04/05 01:06:26;;;;;;;12.65;4.90;;;;;;;5.15;68.11;96263.16;4961266;28;20647;-73
2021/04/05 01:08:54;;;;;;;7.28;3.40;;;;;;;5.01;68.15;96249.25;4948429;28;20552;-72
2021/04/05 01:11:23;;;;;;;8.50;4.35;;;;;;;4.99;68.30;96248.47;4948689;28;20281;-72
2021/04/05 01:13:52;;;;;;;10.50;4.55;;;;;;;4.99;68.44;96245.88;4946856;28;20222;-72
2021/04/05 01:16:21;;;;;;;10.15;4.20;;;;;;;5.06;67.81;96245.53;4948453;28;20203;-72
2021/04/05 01:18:48;;;;;;;12.40;4.70;;;;;;;5.05;68.02;96232.72;4949356;28;20874;-71
2021/04/05 01:21:16;;;;;;;9.57;4.03;;;;;;;5.06;67.86;96236.97;4947225;28;20626;-73
2021/04/05 01:26:43;;;;;;;14.27;4.90;;;;;;;4.90;68.51;96246.31;4970775;28;20269;-74
2021/04/05 01:29:10;;;;;;;10.70;4.88;;;;;;;4.81;68.93;96236.41;4946952;28;20241;-70
2021/04/05 01:31:37;;;;;;;14.10;5.15;;;;;;;4.67;69.29;96233.63;4948202;28;20633;-70
2021/04/05 01:34:05;;;;;;;8.60;5.47;;;;;;;4.58;69.45;96213.44;4948782;28;20735;-71
2021/04/05 01:36:32;;;;;;;14.98;5.20;;;;;;;4.67;69.77;96220.75;4947828;28;20653;-72
2021/04/05 01:38:59;;;;;;;11.38;4.65;;;;;;;4.65;69.51;96214.81;4947073;28;20943;-72
2021/04/05 01:41:29;;;;;;;8.60;4.13;;;;;;;4.57;69.46;96212.59;4961049;28;20533;-72
2021/04/05 01:43:59;;;;;;;16.80;5.75;;;;;;;4.66;69.97;96211.34;4979556;28;20697;-70
2021/04/05 01:46:28;;;;;;;22.65;5.25;;;;;;;4.67;69.45;96198.38;4947761;28;20195;-70
2021/04/05 01:48:59;;;;;;;11.18;4.43;;;;;;;4.60;69.79;96194.41;4947251;28;20219;-71
2021/04/05 01:51:26;;;;;;;17.13;4.45;;;;;;;4.60;70.09;96199.56;4945503;28;20242;-71
2021/04/05 01:53:55;;;;;;;21.70;5.88;;;;;;;4.62;70.18;96202.06;4945992;28;20673;-70
2021/04/05 01:56:23;;;;;;;11.68;4.88;;;;;;;4.63;70.53;96190.84;4937937;28;20195;-72
2021/04/05 01:58:51;;;;;;;10.40;4.45;;;;;;;4.43;70.00;96188.34;4937160;28;20222;-71
2021/04/05 02:01:22;;;;;;;11.07;5.25;;;;;;;4.08;70.70;96176.19;4938357;28;20214;-71
2021/04/05 02:03:50;;;;;;;12.20;3.95;;;;;;;4.09;70.99;96168.41;4951366;28;20229;-72
2021/04/05 02:06:20;;;;;;;16.77;5.10;;;;;;;4.17;71.20;96160.31;4947441;28;20641;-70
2021/04/05 02:08:47;;;;;;;12.18;5.15;;;;;;;4.38;72.43;96146.50;4947202;28;20422;-72
2021/04/05 02:11:18;;;;;;;16.88;5.05;;;;;;;4.49;71.98;96144.25;4946990;28;20222;-70
2021/04/05 02:13:48;;;;;;;11.60;4.28;;;;;;;4.59;71.21;96132.63;4946985;28;20261;-71
2021/04/05 02:16:17;;;;;;;8.77;4.03;;;;;;;4.62;70.98;96137.63;4949506;28;20711;-71
2021/04/05 02:18:44;;;;;;;13.43;4.07;;;;;;;4.76;71.03;96140.41;4963902;28;20226;-70
2021/04/05 02:21:13;;;;;;;13.43;5.07;;;;;;;4.85;70.55;96129.66;4945596;28;20586;-70
2021/04/05 02:23:40;;;;;;;10.90;4.65;;;;;;;4.95;69.70;96136.88;4947003;28;20616;-71
2021/04/05 02:26:10;;;;;;;26.35;4.80;;;;;;;5.00;69.80;96126.34;4958392;28;20240;-72
2021/04/05 02:28:42;;;;;;;17.75;6.00;;;;;;;5.05;69.58;96129.56;4965223;28;20230;-71
2021/04/05 02:31:11;;;;;;;13.85;5.10;;;;;;;5.09;69.53;96129.34;4964850;28;20612;-71
2021/04/05 02:33:40;;;;;;;29.17;5.80;;;;;;;5.15;69.41;96138.50;4965569;28;20231;-71
2021/04/05 02:36:08;;;;;;;14.15;4.90;;;;;;;5.13;69.87;96124.88;4961034;28;20209;-71
2021/04/05 02:38:37;;;;;;;15.70;5.70;;;;;;;5.05;69.43;96126.97;4964993;28;20704;-70
2021/04/05 02:41:07;;;;;;;13.20;4.30;;;;;;;4.99;69.61;96128.13;4966808;28;20506;-72
2021/04/05 02:43:35;;;;;;;12.63;3.80;;;;;;;4.91;69.79;96117.34;4967963;28;20605;-70
2021/04/05 02:46:03;;;;;;;10.02;4.65;;;;;;;4.92;70.04;96118.16;4965765;28;20193;-70
2021/04/05 02:48:33;;;;;;;10.93;4.10;;;;;;;4.89;70.24;96118.31;4948954;28;20303;-71
2021/04/05 02:51:04;;;;;;;11.38;4.68;;;;;;;4.87;70.35;96117.56;4966179;28;20606;-70
2021/04/05 02:53:34;;;;;;;10.27;4.13;;;;;;;4.77;70.19;96117.16;4964379;28;20623;-70
2021/04/05 02:56:02;;;;;;;10.25;4.20;;;;;;;4.68;70.71;96116.75;4963684;28;20208;-69
2021/04/05 02:58:30;;;;;;;12.00;5.55;;;;;;;4.67;70.76;96109.91;4966376;28;20745;-71
2021/04/05 03:00:58;;;;;;;12.23;4.65;;;;;;;4.45;70.76;96110.06;4965325;28;20657;-69
2021/04/05 03:03:25;;;;;;;13.60;5.15;;;;;;;4.46;70.44;96110.91;4970879;28;20246;-70
2021/04/05 03:05:55;;;;;;;14.93;4.85;;;;;;;4.35;71.38;96105.44;4968144;28;20188;-69
2021/04/05 03:08:25;;;;;;;16.23;4.78;;;;;;;4.32;71.35;96100.41;4959435;28;20619;-70
2021/04/05 03:10:52;;;;;;;13.40;4.53;;;;;;;4.28;71.17;96099.72;4960098;28;20702;-69
2021/04/05 03:13:20;;;;;;;12.35;5.32;;;;;;;4.29;71.96;96095.41;4958754;28;20290;-71
2021/04/05 03:15:46;;;;;;;10.73;3.95;;;;;;;4.25;72.22;96091.28;4970357;28;20735;-70
2021/04/05 03:18:16;;;;;;;19.90;5.13;;;;;;;4.20;72.58;96055.44;4970666;28;20669;-69
2021/04/05 03:20:43;;;;;;;14.77;7.00;;;;;;;4.17;72.43;96055.59;4968911;28;20178;-71
2021/04/05 03:23:14;;;;;;;14.38;5.85;;;;;;;4.20;71.94;96046.88;4967125;28;20253;-70
2021/04/05 03:25:41;;;;;;;10.57;4.93;;;;;;;4.19;72.73;96040.91;4964803;28;20223;-70
2021/04/05 03:28:08;;;;;;;20.13;5.63;;;;;;;4.20;72.96;96036.56;4949349;28;20652;-70
2021/04/05 03:30:42;;;;;;;8.45;4.35;;;;;;;4.22;73.10;96027.88;4964311;28;20203;-70
2021/04/05 03:33:14;;;;;;;10.48;5.00;;;;;;;4.10;73.42;96031.03;4950285;28;20665;-70
2021/04/05 03:35:44;;;;;;;17.73;4.25;;;;;;;4.20;73.30;96021.13;4957643;28;20191;-73
2021/04/05 03:38:14;;;;;;;21.33;4.65;;;;;;;4.29;72.56;96023.28;4948493;28;20674;-70
2021/04/05 03:40:42;;;;;;;8.18;4.00;;;;;;;4.31;72.34;96029.19;4951675;28;20196;-70
2021/04/05 03:43:17;;;;;;;12.30;5.43;;;;;;;4.37;72.30;96010.88;4958905;28;20236;-70
2021/04/05 03:45:48;;;;;;;10.82;4.68;;;;;;;4.38;72.50;96015.13;4948573;28;20198;-70
2021/04/05 03:48:21;;;;;;;14.15;4.68;;;;;;;4.47;72.32;96018.09;4947847;28;20654;-70
2021/04/05 03:50:55;;;;;;;12.45;4.20;;;;;;;4.41;72.58;96000.38;4952480;28;20692;-70
2021/04/05 03:53:33;;;;;;;19.17;5.55;;;;;;;4.45;71.95;96006.19;4962953;28;20219;-72
2021/04/05 03:56:06;;;;;;;17.52;5.82;;;;;;;4.33;72.30;95997.31;4948537;28;20527;-71
2021/04/05 03:58:35;;;;;;;17.30;5.45;;;;;;;4.39;72.27;96003.91;4949610;28;20709;-71
2021/04/05 04:01:06;;;;;;;14.18;5.55;;;;;;;4.26;72.88;96001.09;4964153;28;20579;-71
2021/04/05 04:03:47;;;;;;;25.73;5.28;;;;;;;4.19;73.20;95997.13;4948929;28;20254;-71
2021/04/05 04:06:18;;;;;;;14.52;4.75;;;;;;;4.15;72.69;95992.19;4949243;28;20618;-71
2021/04/05 04:08:47;;;;;;;20.92;4.47;;;;;;;4.15;73.16;95985.28;4948405;28;20733;-69
2021/04/05 04:11:21;;;;;;;14.35;5.50;;;;;;;4.12;73.57;95982.03;4946961;28;20196;-70
2021/04/05 04:13:48;;;;;;;21.50;5.22;;;;;;;4.16;73.02;95962.97;4949184;28;20229;-71
2021/04/05 04:16:16;;;;;;;16.50;5.70;;;;;;;4.04;72.84;95953.22;4948964;28;20281;-71
2021/04/05 04:18:42;;;;;;;16.40;4.78;;;;;;;4.05;73.47;95965.19;4968786;28;20693;-73
2021/04/05 04:21:11;;;;;;;12.70;5.22;;;;;;;4.08;74.02;95954.78;4948561;28;20790;-69
2021/04/05 04:23:39;;;;;;;20.20;4.30;;;;;;;3.99;74.25;95955.22;4949068;28;20798;-71
2021/04/05 04:26:07;;;;;;;10.88;4.10;;;;;;;4.02;74.39;95939.59;4962275;28;20540;-71
2021/04/05 04:28:34;;;;;;;11.20;5.07;;;;;;;4.14;73.96;95954.50;4969266;28;20240;-71
2021/04/05 04:31:04;;;;;;;12.13;4.53;;;;;;;4.13;73.99;95952.81;4968464;28;20198;-71
2021/04/05 04:33:32;;;;;;;14.88;4.25;;;;;;;4.09;74.29;95951.28;4967587;28;20697;-72
2021/04/05 04:36:06;;;;;;;13.23;4.47;;;;;;;4.06;74.27;95948.88;4982255;28;20222;-70
2021/04/05 04:38:34;;;;;;;12.82;4.63;;;;;;;4.13;74.34;95932.22;4966768;28;20779;-71
2021/04/05 04:41:02;;;;;;;19.70;5.15;;;;;;;4.25;73.45;95924.75;4965792;28;20265;-70
2021/04/05 04:43:29;;;;;;;8.02;3.40;;;;;;;4.21;73.25;95930.94;4967781;28;20226;-70
2021/04/05 04:45:56;;;;;;;13.93;4.45;;;;;;;4.29;73.85;95928.00;4966657;28;20548;-71
2021/04/05 04:48:23;;;;;;;10.73;3.90;;;;;;;4.35;73.21;95922.56;4965203;28;20273;-71
2021/04/05 04:50:50;;;;;;;15.20;5.32;;;;;;;4.39;73.58;95929.22;4966691;28;20198;-72
2021/04/05 04:53:17;;;;;;;18.75;4.47;;;;;;;4.41;73.44;95923.09;4966788;28;20769;-70
2021/04/05 04:55:44;;;;;;;18.40;4.30;;;;;;;4.41;73.00;95919.66;4966332;28;20539;-70
2021/04/05 04:58:14;;;;;;;11.90;4.25;;;;;;;4.45;73.38;95919.44;4982544;28;20670;-71
2021/04/05 05:01:06;;;;;;;13.70;5.18;;;;;;;4.58;73.38;95904.22;4967869;28;20716;-69
2021/04/05 05:03:34;;;;;;;16.08;4.78;;;;;;;4.53;73.40;95901.03;4964071;28;20241;-71
2021/04/05 05:06:02;;;;;;;12.60;4.13;;;;;;;4.59;73.01;95905.88;4968644;28;20192;-71
2021/04/05 05:08:30;;;;;;;13.60;4.13;;;;;;;4.58;72.92;95894.72;4967719;28;20847;-71
2021/04/05 05:10:57;;;;;;;14.68;5.00;;;;;;;4.71;72.66;95887.22;4965809;28;20634;-70
2021/04/05 05:13:24;;;;;;;14.38;5.35;;;;;;;4.52;73.18;95887.31;4967866;28;20643;-71
2021/04/05 05:15:52;;;;;;;13.23;4.38;;;;;;;4.53;73.53;95883.84;4967571;28;20590;-70
2021/04/05 05:18:20;;;;;;;14.23;5.25;;;;;;;4.50;73.60;95875.44;4967743;28;20674;-72
2021/04/05 05:20:47;;;;;;;8.48;4.55;;;;;;;4.54;72.98;95872.63;4965191;28;20727;-70
2021/04/05 05:23:18;;;;;;;14.88;5.13;;;;;;;4.51;73.22;95867.59;4961919;28;20229;-71
2021/04/05 05:25:46;;;;;;;16.50;5.95;;;;;;;4.41;73.82;95866.41;4967103;28;20672;-71
2021/04/05 05:28:16;;;;;;;11.13;4.55;;;;;;;4.51;73.74;95871.94;4964969;28;20295;-70
2021/04/05 05:30:44;;;;;;;18.10;5.80;;;;;;;4.48;73.59;95851.47;4964509;28;20194;-70
2021/04/05 05:33:11;;;;;;;19.20;5.18;;;;;;;4.52;74.07;95851.22;4980930;28;20220;-71
2021/04/05 05:35:39;;;;;;;20.55;5.85;;;;;;;4.49;73.83;95848.81;4967113;28;20807;-72
2021/04/05 05:38:06;;;;;;;17.13;4.63;;;;;;;4.46;74.40;95837.84;4965129;28;20246;-71
2021/04/05 05:40:35;;;;;;;10.65;4.28;;;;;;;4.50;74.50;95836.78;4966722;28;20582;-72
2021/04/05 05:43:28;;;;;;;15.82;5.75;;;;;;;4.59;73.89;95841.47;4967146;28;20740;-72
2021/04/05 05:46:10;;;;;;;19.00;6.82;;;;;;;4.57;74.29;95845.88;4967316;28;20643;-72
2021/04/05 05:49:00;;;;;;;14.02;5.68;;;;;;;4.54;74.19;95844.28;4966911;28;20221;-72
2021/04/05 05:51:47;;;;;;;19.63;5.40;;;;;;;4.69;73.77;95840.06;4965647;28;20190;-73
2021/04/05 05:54:24;;;;;;;16.60;5.50;;;;;;;4.82;73.85;95825.66;4956086;28;20260;-72
2021/04/05 05:56:55;;;;;;;13.65;6.03;;;;;;;4.86;73.49;95811.72;4964348;28;20223;-71
2021/04/05 05:59:34;;;;;;;11.88;4.60;;;;;;;5.25;72.73;95833.59;4963526;28;20863;-73
2021/04/05 06:02:21;;;;;;;13.65;5.22;;;;;;;5.51;71.80;95827.03;4966385;28;20692;-72
2021/04/05 06:05:10;;;;;;;14.18;4.35;;;;;;;5.74;71.27;95826.63;4965703;28;20359;-72
2021/04/05 06:07:49;;;;;;;26.95;6.20;;;;;;;5.94;70.46;95836.69;4981472;28;20220;-74
2021/04/05 06:10:38;;;;;;;15.05;5.30;;;;;;;6.10;69.82;95837.47;4980906;28;20669;-74
2021/04/05 06:13:20;;;;;;;10.85;4.35;;;;;;;6.19;69.60;95834.41;4962520;28;20674;-73
2021/04/05 06:16:12;;;;;;;30.13;6.18;;;;;;;6.23;69.48;95823.81;4967536;28;20576;-74
2021/04/05 06:18:53;;;;;;;22.83;5.43;;;;;;;6.30;69.32;95813.94;4965800;28;20272;-74
2021/04/05 06:21:33;;;;;;;15.20;5.20;;;;;;;6.41;68.82;95811.56;4962733;28;20707;-73
2021/04/05 06:24:04;;;;;;;12.70;4.63;;;;;;;6.44;68.74;95806.22;4965232;28;20221;-74
2021/04/05 06:26:53;;;;;;;8.20;4.32;;;;;;;6.50;68.07;95801.53;4961462;28;20352;-73
2021/04/05 06:29:37;;;;;;;11.80;4.18;;;;;;;6.62;68.12;95800.78;4964946;28;20225;-73
2021/04/05 06:32:20;;;;;;;10.38;4.28;;;;;;;6.71;68.16;95812.34;4966459;28;20182;-73
2021/04/05 06:35:03;;;;;;;15.13;4.10;;;;;;;6.81;67.09;95810.88;4954952;28;20661;-73
2021/04/05 06:37:37;;;;;;;17.58;4.65;;;;;;;6.92;66.57;95798.94;4968493;28;20217;-75
2021/04/05 06:40:08;;;;;;;15.63;4.68;;;;;;;6.97;66.32;95796.94;4967259;28;20526;-75
2021/04/05 06:43:05;;;;;;;22.92;5.68;;;;;;;7.12;66.33;95789.97;4980238;28;20214;-72
2021/04/05 06:45:48;;;;;;;19.40;5.28;;;;;;;7.18;66.38;95771.50;4944578;28;20211;-73
2021/04/05 06:48:45;;;;;;;18.35;4.80;;;;;;;7.30;66.34;95783.69;4968338;28;20533;-73
2021/04/05 06:51:28;;;;;;;9.15;4.85;;;;;;;7.56;65.70;95780.28;4981361;28;20308;-73
2021/04/05 06:54:22;;;;;;;17.15;4.88;;;;;;;7.72;64.58;95786.16;4952535;28;20602;-74
2021/04/05 06:57:02;;;;;;;16.23;5.35;;;;;;;7.98;64.48;95787.88;4966468;28;20202;-74
2021/04/05 06:59:45;;;;;;;15.25;5.85;;;;;;;8.21;63.72;95779.47;4959286;28;20218;-72
2021/04/05 07:02:54;;;;;;;10.05;4.85;;;;;;;8.51;63.11;95768.75;4965718;28;20621;-72
2021/04/05 07:05:40;;;;;;;14.50;4.57;;;;;;;8.49;62.21;95770.59;4931115;28;20217;-74
2021/04/05 07:08:13;;;;;;;20.50;5.30;;;;;;;8.63;62.42;95770.50;4961785;28;20669;-72
2021/04/05 07:10:48;;;;;;;14.57;4.77;;;;;;;8.73;61.87;95768.13;4967320;28;20437;-72
2021/04/05 07:13:26;;;;;;;15.63;6.03;;;;;;;8.88;61.75;95767.91;4967878;28;20464;-72
2021/04/05 07:15:58;;;;;;;9.10;4.67;;;;;;;9.15;60.90;95768.56;4963974;28;20436;-73
2021/04/05 07:18:39;;;;;;;13.70;4.70;;;;;;;9.60;59.27;95767.94;4967892;28;20585;-72
2021/04/05 07:21:24;;;;;;;12.07;4.33;;;;;;;9.81;59.07;95765.59;4956192;28;20557;-74
2021/04/05 07:24:13;;;;;;;20.97;8.50;;;;;;;9.87;59.47;95760.75;4968643;28;20477;-75
2021/04/05 07:26:52;;;;;;;12.90;4.20;;;;;;;10.24;58.51;95748.53;4966360;28;20553;-73
2021/04/05 07:29:25;;;;;;;15.23;4.33;;;;;;;10.55;58.35;95753.91;4958999;28;20473;-74
2021/04/05 07:31:59;;;;;;;14.70;5.17;;;;;;;11.00;56.51;95744.38;4962957;28;20904;-76
2021/04/05 07:34:34;;;;;;;19.83;5.13;;;;;;;11.48;56.47;95741.38;4944813;28;20478;-74
2021/04/05 07:37:17;;;;;;;33.00;5.53;;;;;;;12.04;55.24;95750.75;4947053;28;21020;-74
2021/04/05 07:39:50;;;;;;;19.00;4.70;;;;;;;12.41;53.64;95748.53;4966776;28;20444;-75
2021/04/05 07:42:27;;;;;;;12.13;4.30;;;;;;;12.50;53.36;95748.63;4966404;28;20455;-73
2021/04/05 07:45:05;;;;;;;12.50;4.00;;;;;;;12.94;52.05;95735.28;4964599;28;20889;-75
2021/04/05 07:47:37;;;;;;;16.43;4.93;;;;;;;12.56;51.93;95735.06;4964629;28;20934;-74
2021/04/05 07:50:11;;;;;;;15.00;4.50;;;;;;;12.22;52.09;95738.78;4949868;28;21090;-75
2021/04/05 07:52:46;;;;;;;8.83;3.40;;;;;;;12.04;51.61;95739.47;4947848;28;20975;-74
2021/04/05 07:55:15;;;;;;;16.90;4.60;;;;;;;12.38;52.57;95733.97;4964761;28;20996;-73
2021/04/05 07:57:54;;;;;;;12.67;4.10;;;;;;;12.69;50.96;95717.41;4947556;28;20958;-73
2021/04/05 08:00:30;;;;;;;16.20;4.00;;;;;;;12.32;50.62;95724.06;4950934;28;21222;-75
2021/04/05 08:03:04;;;;;;;9.93;4.00;;;;;;;12.26;51.49;95721.09;4948927;28;20466;-75
2021/04/05 08:05:48;;;;;;;32.13;5.00;;;;;;;11.83;51.39;95726.41;4949657;28;20439;-75
2021/04/05 08:08:37;;;;;;;17.07;3.40;;;;;;;11.69;52.70;95718.84;4947985;28;20953;-75
2021/04/05 08:11:18;;;;;;;15.83;3.67;;;;;;;11.45;52.56;95720.78;4964544;28;20501;-74
2021/04/05 08:13:52;;;;;;;9.90;3.93;;;;;;;10.97;52.68;95722.00;4962625;28;20540;-76
2021/04/05 08:16:29;;;;;;;16.07;3.40;;;;;;;10.75;52.77;95714.19;4967785;28;20918;-71
2021/04/05 08:19:03;;;;;;;13.83;3.67;;;;;;;10.32;53.33;95702.78;4966721;28;20520;-75
2021/04/05 08:21:32;;;;;;;14.67;4.67;;;;;;;10.16;55.08;95720.50;4950522;28;20453;-71
2021/04/05 08:24:24;;;;;;;18.33;3.97;;;;;;;10.13;54.75;95725.09;4948133;28;20807;-75
2021/04/05 08:26:57;;;;;;;14.53;4.60;;;;;;;10.00;55.41;95727.75;4968857;28;20512;-75
2021/04/05 08:29:33;;;;;;;21.07;4.17;;;;;;;9.97;55.78;95717.56;4967931;28;20491;-74
2021/04/05 08:32:14;;;;;;;13.47;4.70;;;;;;;9.93;55.76;95718.72;4967576;28;20544;-72
2021/04/05 08:34:52;;;;;;;17.00;4.37;;;;;;;9.83;56.01;95722.97;4968495;28;20428;-73
2021/04/05 08:37:25;;;;;;;23.77;4.73;;;;;;;9.85;55.97;95713.28;4955139;28;21004;-75
2021/04/05 08:40:02;;;;;;;17.20;5.03;;;;;;;9.82;56.34;95710.88;4948062;28;20449;-73
2021/04/05 08:42:33;;;;;;;12.10;4.30;;;;;;;9.79;55.82;95715.47;4949638;28;20825;-72
2021/04/05 08:45:08;;;;;;;16.43;5.43;;;;;;;9.83;56.58;95720.34;4963523;28;20984;-71
2021/04/05 08:47:41;;;;;;;17.33;4.43;;;;;;;9.82;55.36;95708.28;4963629;28;20792;-74
2021/04/05 08:50:11;;;;;;;14.37;3.80;;;;;;;9.91;54.49;95725.81;4962565;28;20475;-72
2021/04/05 08:52:42;;;;;;;22.90;5.17;;;;;;;9.83;55.50;95702.16;4949118;28;20524;-72
2021/04/05 08:55:12;;;;;;;9.60;4.40;;;;;;;9.85;54.22;95710.66;4950631;28;20538;-72
2021/04/05 08:57:48;;;;;;;8.97;3.40;;;;;;;9.78;53.70;95711.22;4945736;28;20474;-75
2021/04/05 09:00:16;;;;;;;10.07;4.20;;;;;;;9.60;55.50;95700.38;4948542;28;21020;-72
2021/04/05 09:02:48;;;;;;;13.17;4.87;;;;;;;9.80;56.14;95702.38;4964320;28;20536;-72
2021/04/05 09:05:26;;;;;;;20.80;3.90;;;;;;;9.78;55.30;95699.06;4948984;28;20985;-74
2021/04/05 09:08:03;;;;;;;16.23;4.07;;;;;;;9.74;54.95;95702.00;4946915;28;20466;-73
2021/04/05 09:10:42;;;;;;;21.07;5.53;;;;;;;9.75;54.81;95690.66;4949344;28;20437;-74
2021/04/05 09:13:13;;;;;;;25.60;7.90;;;;;;;9.71;56.08;95686.63;4946217;28;20958;-75
2021/04/05 09:16:13;;;;;;;13.83;3.33;;;;;;;9.71;54.25;95677.06;4948822;28;20457;-74
2021/04/05 09:19:03;;;;;;;16.57;4.77;;;;;;;9.69;54.61;95673.75;4962534;28;21015;-74
2021/04/05 09:21:45;;;;;;;18.97;5.53;;;;;;;9.77;54.28;95675.78;4950650;28;20430;-74
2021/04/05 09:24:44;;;;;;;13.03;3.87;;;;;;;9.84;54.42;95664.84;4937192;28;20856;-75
2021/04/05 09:27:51;;;;;;;13.13;4.23;;;;;;;10.04;53.66;95669.38;4926825;28;20785;-74
2021/04/05 09:30:45;;;;;;;12.50;3.33;;;;;;;10.09;52.69;95662.09;4948140;28;21071;-75
2021/04/05 09:33:50;;;;;;;9.67;3.73;;;;;;;10.02;53.25;95666.06;4960876;28;20455;-74
2021/04/05 09:36:43;;;;;;;12.80;4.93;;;;;;;10.15;52.94;95656.44;4937229;28;20441;-75
2021/04/05 09:39:28;;;;;;;9.97;3.63;;;;;;;10.11;51.81;95654.19;4942182;28;20939;-74
2021/04/05 09:42:13;;;;;;;13.30;3.60;;;;;;;10.08;50.62;95652.63;4938276;28;20810;-75
2021/04/05 09:44:55;;;;;;;13.47;3.70;;;;;;;10.11;50.62;95639.38;4946346;28;20971;-75
2021/04/05 09:47:44;;;;;;;12.50;3.20;;;;;;;10.07;50.56;95653.59;4944822;28;20917;-75
2021/04/05 09:50:24;;;;;;;6.80;2.60;;;;;;;10.09;50.44;95650.88;4977771;28;20442;-73
2021/04/05 09:53:15;;;;;;;19.40;4.70;;;;;;;10.06;50.75;95641.53;4945213;28;20458;-72
2021/04/05 09:55:46;;;;;;;18.50;4.00;;;;;;;10.05;49.71;95632.06;4960783;28;20504;-72
2021/04/05 09:58:18;;;;;;;7.33;3.43;;;;;;;10.10;49.56;95627.34;4967650;28;20814;-72
2021/04/05 10:00:51;;;;;;;9.53;3.50;;;;;;;10.27;48.97;95613.06;4953430;28;20521;-72
2021/04/05 10:03:20;;;;;;;12.27;3.83;;;;;;;10.32;48.72;95616.16;4979034;28;20488;-74
2021/04/05 10:05:49;;;;;;;11.23;3.40;;;;;;;10.31;48.14;95609.31;4950744;28;20759;-73
2021/04/05 10:08:23;;;;;;;7.53;2.37;;;;;;;10.38;45.70;95616.50;4946258;28;20859;-72
2021/04/05 10:10:52;;;;;;;8.20;3.47;;;;;;;10.35;45.98;95619.34;4945541;28;20505;-71
2021/04/05 10:13:22;;;;;;;8.13;3.60;;;;;;;10.53;46.21;95619.72;4947224;28;21186;-72
2021/04/05 10:16:06;;;;;;;9.40;3.40;;;;;;;10.61;46.38;95615.53;4949102;28;20917;-72
2021/04/05 10:18:35;;;;;;;8.97;3.30;;;;;;;10.77;46.07;95618.59;4948520;28;20485;-72
2021/04/05 10:21:05;;;;;;;13.53;2.93;;;;;;;10.81;45.80;95619.19;4948221;28;20487;-72
2021/04/05 10:23:34;;;;;;;9.87;3.20;;;;;;;11.03;45.55;95620.00;4947293;28;20496;-72
2021/04/05 10:26:03;;;;;;;9.20;3.80;;;;;;;11.27;45.66;95597.19;4958197;28;20889;-71
2021/04/05 10:28:33;;;;;;;7.70;4.10;;;;;;;11.54;44.88;95591.50;4966249;28;20457;-72
2021/04/05 10:31:05;;;;;;;6.17;2.80;;;;;;;11.64;44.74;95610.72;4966352;28;20523;-73
2021/04/05 10:33:34;;;;;;;11.10;3.10;;;;;;;11.92;45.50;95610.09;4981489;28;21022;-71
2021/04/05 10:36:06;;;;;;;12.20;4.43;;;;;;;12.25;45.72;95605.50;4948679;28;21186;-72
2021/04/05 10:38:35;;;;;;;9.37;3.47;;;;;;;12.22;45.62;95600.50;4965914;28;20936;-72
2021/04/05 10:41:06;;;;;;;11.70;2.93;;;;;;;12.46;45.44;95600.22;4965787;28;20443;-73
2021/04/05 10:43:39;;;;;;;13.10;4.27;;;;;;;12.45;45.69;95596.78;4966064;28;20474;-73
2021/04/05 10:46:12;;;;;;;36.40;14.87;;;;;;;12.24;45.92;95596.03;4964307;28;20480;-72
2021/04/05 10:48:42;;;;;;;10.87;3.53;;;;;;;12.15;46.65;95596.78;4963075;28;20547;-75
2021/04/05 10:51:14;;;;;;;11.33;3.80;;;;;;;12.19;47.42;95592.97;4965370;28;20441;-75
2021/04/05 10:53:44;;;;;;;14.00;3.90;;;;;;;12.21;47.59;95591.03;4964494;28;20863;-74
2021/04/05 10:56:12;;;;;;;10.90;3.63;;;;;;;12.18;47.89;95577.44;4965387;28;20904;-75
2021/04/05 10:58:47;;;;;;;10.83;3.60;;;;;;;12.23;48.64;95578.69;4964530;28;20505;-75
2021/04/05 11:01:16;;;;;;;13.20;4.50;;;;;;;12.05;49.46;95575.03;4963498;28;20444;-75
2021/04/05 11:03:48;;;;;;;26.53;5.00;;;;;;;11.87;50.69;95591.38;4966231;28;20472;-72
2021/04/05 11:06:18;;;;;;;14.30;4.20;;;;;;;11.97;50.61;95582.69;4964231;28;20891;-72
2021/04/05 11:08:50;;;;;;;21.67;5.23;;;;;;;11.90;51.68;95578.94;4965524;28;20959;-74
2021/04/05 11:11:22;;;;;;;17.43;5.27;;;;;;;11.73;51.08;95579.50;4964599;28;20441;-74
2021/04/05 11:13:52;;;;;;;14.13;5.03;;;;;;;11.67;51.86;95579.16;4963410;28;20796;-75
2021/04/05 11:16:21;;;;;;;16.73;5.57;;;;;;;11.67;52.02;95577.41;4962945;28;20525;-73
2021/04/05 11:18:51;;;;;;;13.67;5.23;;;;;;;11.26;52.63;95587.72;4965018;28;20480;-72
2021/04/05 11:21:21;;;;;;;19.57;6.77;;;;;;;11.23;53.48;95580.16;4966503;28;20923;-72
2021/04/05 11:23:54;;;;;;;14.80;5.63;;;;;;;11.43;53.58;95581.16;4967413;28;20476;-72
2021/04/05 11:26:23;;;;;;;12.43;5.17;;;;;;;11.38;53.37;95578.94;4954465;28;20470;-73
2021/04/05 11:28:54;;;;;;;21.77;6.37;;;;;;;11.32;53.23;95562.94;4950124;28;20466;-73
2021/04/05 11:31:23;;;;;;;18.30;5.80;;;;;;;11.35;53.39;95573.94;4950132;28;21172;-72
2021/04/05 11:33:54;;;;;;;13.27;5.90;;;;;;;11.19;52.87;95576.16;4948164;28;20851;-73
2021/04/05 11:36:22;;;;;;;23.40;6.83;;;;;;;11.09;53.05;95577.84;4981571;28;20959;-73
2021/04/05 11:38:52;;;;;;;14.70;5.70;;;;;;;10.99;54.15;95573.50;4954057;28;20523;-71
2021/04/05 11:41:28;;;;;;;20.80;6.50;;;;;;;10.77;54.43;95565.72;4948239;28;20485;-72
2021/04/05 11:43:57;;;;;;;18.23;6.70;;;;;;;10.66;54.66;95563.97;4949177;28;20465;-71
2021/04/05 11:46:29;;;;;;;33.77;7.53;;;;;;;10.76;54.87;95567.50;4948400;28;20894;-71
2021/04/05 11:49:04;;;;;;;24.63;6.80;;;;;;;10.74;55.14;95569.41;4951692;28;20468;-72
2021/04/05 11:51:38;;;;;;;20.97;7.03;;;;;;;10.62;55.43;95575.56;4949736;28;20445;-75
2021/04/05 11:54:09;;;;;;;20.60;6.83;;;;;;;10.69;57.70;95578.53;4949629;28;20989;-75
2021/04/05 11:56:37;;;;;;;25.63;8.13;;;;;;;10.65;59.25;95559.72;4951370;28;21008;-71
2021/04/05 11:59:12;;;;;;;27.43;9.60;;;;;;;10.73;59.15;95569.50;4962971;28;20470;-74
2021/04/05 12:01:45;;;;;;;16.77;7.63;;;;;;;10.60;59.98;95584.47;4951870;28;21171;-74